Time;durP1;ratioP1;P1;durP2;ratioP2;P2;SDS_P1;SDS_P2;PMS_P1;PMS_P2;Temp;Humidity;BMP_temperature;BMP_pressure;BME280_temperature;BME280_humidity;BME280_pressure;Samples;Min_cycle;Max_cycle;Signal;HPM_P1;HPM_P2
2023/12/03 00:02:24;;;;;;;27.40;15.32;;;-3.00;99.90;;;;;;5096047;28;20032;-79
2023/12/03 00:04:53;;;;;;;33.00;18.65;;;-3.00;99.90;;;;;;5109673;28;20020;-78
2023/12/03 00:07:23;;;;;;;26.65;15.43;;;-2.90;99.90;;;;;;5115963;28;20016;-79
2023/12/03 00:09:49;;;;;;;25.48;13.13;;;-2.90;99.90;;;;;;5110894;28;20346;-80
2023/12/03 00:12:15;;;;;;;28.75;15.48;;;-2.90;99.90;;;;;;5111158;28;20480;-79
2023/12/03 00:14:41;;;;;;;21.58;11.90;;;-2.90;99.90;;;;;;5115463;27;20023;-78
2023/12/03 00:17:07;;;;;;;25.00;14.43;;;-3.00;99.90;;;;;;5107713;28;20488;-79
2023/12/03 00:19:33;;;;;;;23.13;14.57;;;-3.10;99.90;;;;;;5109521;27;20032;-79
2023/12/03 00:21:59;;;;;;;22.58;12.55;;;-3.20;99.90;;;;;;5123283;27;20034;-80
2023/12/03 00:24:25;;;;;;;26.50;14.23;;;-3.20;99.90;;;;;;5087403;28;20019;-82
2023/12/03 00:26:51;;;;;;;24.55;13.93;;;-3.20;99.90;;;;;;5082895;28;20568;-80
2023/12/03 00:29:17;;;;;;;22.40;13.05;;;-3.20;99.90;;;;;;5114530;28;20058;-83
2023/12/03 00:31:43;;;;;;;19.45;11.95;;;-3.20;99.90;;;;;;5122628;28;20031;-82
2023/12/03 00:34:09;;;;;;;25.30;14.32;;;-3.20;99.90;;;;;;5118130;28;20027;-82
2023/12/03 00:36:35;;;;;;;24.45;14.05;;;-3.30;99.90;;;;;;5107964;28;20380;-81
2023/12/03 00:39:01;;;;;;;25.02;12.00;;;-3.20;99.90;;;;;;5115524;28;20027;-80
2023/12/03 00:41:26;;;;;;;23.73;13.60;;;-3.20;99.90;;;;;;5117675;28;20031;-82
2023/12/03 00:43:53;;;;;;;30.63;15.50;;;-3.20;99.90;;;;;;5106285;28;20024;-82
2023/12/03 00:46:20;;;;;;;26.02;16.15;;;-3.30;99.90;;;;;;5077891;28;20068;-80
2023/12/03 00:48:49;;;;;;;33.22;16.73;;;-3.30;99.90;;;;;;5077606;28;20054;-79
2023/12/03 00:51:15;;;;;;;28.48;16.80;;;-3.20;99.90;;;;;;5110720;28;20019;-80
2023/12/03 00:53:42;;;;;;;36.85;17.00;;;-3.10;99.90;;;;;;5109574;28;20019;-81
2023/12/03 00:56:09;;;;;;;26.35;15.02;;;-3.00;99.90;;;;;;5112827;28;20024;-81
2023/12/03 00:58:35;;;;;;;27.45;16.70;;;-3.00;99.90;;;;;;5112711;28;20060;-81
2023/12/03 01:01:01;;;;;;;29.83;17.35;;;-3.00;99.90;;;;;;5094268;28;20070;-80
2023/12/03 01:03:28;;;;;;;26.50;15.05;;;-2.90;99.90;;;;;;5112325;28;20020;-80
2023/12/03 01:05:54;;;;;;;29.90;16.58;;;-3.00;99.90;;;;;;5112469;28;20389;-80
2023/12/03 01:08:20;;;;;;;31.20;15.98;;;-3.00;99.90;;;;;;5111371;27;20026;-79
2023/12/03 01:10:46;;;;;;;22.88;12.32;;;-3.00;99.90;;;;;;5125612;27;20037;-79
2023/12/03 01:13:12;;;;;;;22.75;14.27;;;-3.00;99.90;;;;;;5090029;28;20485;-80
2023/12/03 01:15:38;;;;;;;22.58;13.50;;;-3.20;99.90;;;;;;5113186;28;20485;-79
2023/12/03 01:18:04;;;;;;;26.00;15.32;;;-3.20;99.90;;;;;;5112227;28;20022;-78
2023/12/03 01:20:30;;;;;;;29.48;16.08;;;-3.20;99.90;;;;;;5083640;28;20024;-79
2023/12/03 01:22:55;;;;;;;30.40;18.13;;;-3.20;99.90;;;;;;5103500;28;20405;-80
2023/12/03 01:25:21;;;;;;;28.77;17.40;;;-3.10;99.90;;;;;;5112675;28;20019;-79
2023/12/03 01:27:47;;;;;;;31.23;18.67;;;-3.10;99.90;;;;;;5111989;28;20023;-79
2023/12/03 01:30:14;;;;;;;35.88;19.52;;;-3.00;99.90;;;;;;5107491;28;20021;-81
2023/12/03 01:32:40;;;;;;;36.10;20.83;;;-3.00;99.90;;;;;;5100426;28;20101;-80
2023/12/03 01:35:06;;;;;;;33.30;21.13;;;-2.90;99.90;;;;;;5088976;28;20051;-79
2023/12/03 01:37:32;;;;;;;36.22;21.92;;;-2.90;99.90;;;;;;5111817;28;20045;-80
2023/12/03 01:39:58;;;;;;;37.85;23.50;;;-2.80;99.90;;;;;;5111732;28;20178;-79
2023/12/03 01:42:24;;;;;;;42.13;25.63;;;-2.80;99.90;;;;;;5112219;28;20115;-80
2023/12/03 01:44:51;;;;;;;36.85;22.17;;;-2.80;99.90;;;;;;5095071;28;20040;-80
2023/12/03 01:47:18;;;;;;;42.65;21.45;;;-2.80;99.90;;;;;;5100347;28;20020;-79
2023/12/03 01:49:45;;;;;;;42.28;23.17;;;-2.80;99.90;;;;;;5110244;28;20024;-79
2023/12/03 01:52:13;;;;;;;39.55;22.25;;;-2.90;99.90;;;;;;5113027;28;20058;-80
2023/12/03 01:54:43;;;;;;;34.35;21.60;;;-3.10;99.90;;;;;;5112528;28;20380;-79
2023/12/03 01:57:10;;;;;;;36.65;22.52;;;-3.10;99.90;;;;;;5112929;28;20537;-81
2023/12/03 01:59:36;;;;;;;41.83;22.67;;;-3.10;99.90;;;;;;5115679;28;20011;-79
2023/12/03 02:02:03;;;;;;;43.53;23.92;;;-3.10;99.90;;;;;;5116597;28;20035;-81
2023/12/03 02:04:29;;;;;;;40.58;22.30;;;-3.00;99.90;;;;;;5094110;28;20049;-79
2023/12/03 02:06:55;;;;;;;42.17;24.75;;;-2.90;99.90;;;;;;5095587;28;20033;-79
2023/12/03 02:09:21;;;;;;;46.67;24.67;;;-2.90;99.90;;;;;;5122811;27;20030;-80
2023/12/03 02:11:47;;;;;;;42.17;25.63;;;-2.90;99.90;;;;;;5096730;28;20537;-80
2023/12/03 02:14:14;;;;;;;38.40;24.48;;;-2.90;99.90;;;;;;5120573;28;20016;-79
2023/12/03 02:16:47;;;;;;;41.38;22.02;;;-2.80;99.90;;;;;;5122493;28;20070;-80
2023/12/03 02:19:14;;;;;;;36.90;21.20;;;-2.80;99.90;;;;;;5097157;28;20019;-80
2023/12/03 02:21:40;;;;;;;37.97;21.45;;;-2.80;99.90;;;;;;5124316;27;20373;-79
2023/12/03 02:24:06;;;;;;;37.92;22.75;;;-2.70;99.90;;;;;;5123407;27;20043;-81
2023/12/03 02:26:32;;;;;;;31.45;19.52;;;-2.80;99.90;;;;;;5107089;28;20027;-77
2023/12/03 02:28:57;;;;;;;32.22;19.45;;;-2.80;99.90;;;;;;5097350;28;20047;-80
2023/12/03 02:31:24;;;;;;;35.95;19.48;;;-2.80;99.90;;;;;;5115476;28;20023;-80
2023/12/03 02:34:07;;;;;;;36.20;20.02;;;-2.80;99.90;;;;;;5111770;28;20022;-80
2023/12/03 02:36:33;;;;;;;37.38;20.55;;;-2.80;99.90;;;;;;5116944;28;20053;-79
2023/12/03 02:38:59;;;;;;;38.13;20.25;;;-2.80;99.90;;;;;;5115511;28;20020;-81
2023/12/03 02:41:25;;;;;;;34.10;18.50;;;-2.80;99.90;;;;;;5114971;28;20106;-80
2023/12/03 02:43:51;;;;;;;41.20;19.92;;;-2.80;99.90;;;;;;5115042;28;20107;-80
2023/12/03 02:46:17;;;;;;;34.30;20.95;;;-2.80;99.90;;;;;;5088223;28;20073;-80
2023/12/03 02:48:43;;;;;;;41.38;25.70;;;-2.80;99.90;;;;;;5115135;28;20019;-81
2023/12/03 02:51:09;;;;;;;41.42;22.55;;;-2.80;99.90;;;;;;5114318;28;20034;-79
2023/12/03 02:53:39;;;;;;;39.00;21.53;;;-2.80;99.90;;;;;;5113692;28;20072;-81
2023/12/03 02:56:06;;;;;;;37.35;20.50;;;-2.80;99.90;;;;;;5096483;28;20069;-79
2023/12/03 02:58:33;;;;;;;42.45;21.58;;;-2.90;99.90;;;;;;5114904;28;20418;-79
2023/12/03 03:00:58;;;;;;;43.88;23.55;;;-2.90;99.90;;;;;;5092934;28;20043;-79
2023/12/03 03:03:24;;;;;;;40.90;21.73;;;-2.90;99.90;;;;;;5114481;28;20418;-80
2023/12/03 03:05:59;;;;;;;31.88;20.48;;;-2.90;99.90;;;;;;5115420;28;20019;-82
2023/12/03 03:08:26;;;;;;;35.47;21.02;;;-2.90;99.90;;;;;;5097045;28;20077;-80
2023/12/03 03:10:51;;;;;;;41.20;20.13;;;-2.90;99.90;;;;;;5114487;28;20027;-81
2023/12/03 03:13:17;;;;;;;41.38;24.23;;;-3.00;99.90;;;;;;5117187;28;20084;-79
2023/12/03 03:15:43;;;;;;;42.65;21.30;;;-3.00;99.90;;;;;;5089947;28;20027;-80
2023/12/03 03:18:09;;;;;;;44.42;23.63;;;-2.90;99.90;;;;;;5116943;28;20020;-79
2023/12/03 03:20:36;;;;;;;35.17;21.52;;;-3.00;99.90;;;;;;5117612;28;20019;-80
2023/12/03 03:23:02;;;;;;;40.33;22.63;;;-3.00;99.90;;;;;;5082054;28;20048;-81
2023/12/03 03:25:27;;;;;;;35.65;21.48;;;-3.00;99.90;;;;;;5110178;28;20286;-79
2023/12/03 03:27:53;;;;;;;41.33;23.65;;;-3.00;99.90;;;;;;5107830;28;20472;-79
2023/12/03 03:30:19;;;;;;;35.45;20.25;;;-3.00;99.90;;;;;;5114587;28;20020;-80
2023/12/03 03:32:45;;;;;;;34.13;20.77;;;-3.00;99.90;;;;;;5114090;28;20026;-80
2023/12/03 03:35:11;;;;;;;34.30;20.45;;;-3.00;99.90;;;;;;5118906;27;20032;-79
2023/12/03 03:37:37;;;;;;;35.22;18.83;;;-3.10;99.90;;;;;;5113910;28;20020;-81
2023/12/03 03:40:03;;;;;;;36.58;20.77;;;-3.10;99.90;;;;;;5118724;27;20023;-79
2023/12/03 03:42:29;;;;;;;35.85;20.42;;;-3.10;99.90;;;;;;5121145;27;20042;-81
2023/12/03 03:44:55;;;;;;;42.17;24.45;;;-3.20;99.90;;;;;;5095505;28;20048;-81
2023/12/03 03:47:21;;;;;;;40.05;21.02;;;-3.20;99.90;;;;;;5112383;28;20034;-81
2023/12/03 03:49:47;;;;;;;41.78;23.40;;;-3.20;99.90;;;;;;5113886;28;20016;-81
2023/12/03 03:52:12;;;;;;;43.20;23.25;;;-3.20;99.90;;;;;;5113547;28;20385;-81
2023/12/03 03:54:41;;;;;;;39.55;23.60;;;-3.30;99.90;;;;;;5113721;28;20023;-80
2023/12/03 03:57:08;;;;;;;47.63;23.85;;;-3.30;99.90;;;;;;5114141;28;20023;-80
2023/12/03 03:59:34;;;;;;;40.60;21.83;;;-3.40;99.90;;;;;;5120423;28;20042;-79
2023/12/03 04:02:00;;;;;;;41.38;24.20;;;-3.40;99.90;;;;;;5102188;28;20436;-80
2023/12/03 04:04:25;;;;;;;41.40;23.27;;;-3.40;99.90;;;;;;5114230;28;20051;-80
2023/12/03 04:06:51;;;;;;;45.85;25.42;;;-3.50;99.90;;;;;;5110155;28;20095;-80
2023/12/03 04:09:17;;;;;;;36.40;20.50;;;-3.50;99.90;;;;;;5113519;28;20055;-81
2023/12/03 04:11:44;;;;;;;45.47;26.73;;;-3.60;99.90;;;;;;5113583;28;20102;-79
2023/12/03 04:14:15;;;;;;;39.40;22.08;;;-3.60;99.90;;;;;;5113572;28;20046;-80
2023/12/03 04:16:41;;;;;;;40.70;24.33;;;-3.60;99.90;;;;;;5113411;28;20028;-80
2023/12/03 04:19:08;;;;;;;43.88;24.02;;;-3.60;99.90;;;;;;5108321;28;20024;-80
2023/12/03 04:21:36;;;;;;;47.87;24.43;;;-3.60;99.90;;;;;;5099707;28;20456;-80
2023/12/03 04:24:02;;;;;;;41.25;22.58;;;-3.70;99.90;;;;;;5094898;28;20480;-80
2023/12/03 04:26:29;;;;;;;48.08;25.88;;;-3.70;99.90;;;;;;5112219;28;20031;-80
2023/12/03 04:28:55;;;;;;;39.45;23.05;;;-3.70;99.90;;;;;;5113223;28;20353;-81
2023/12/03 04:31:22;;;;;;;43.35;23.83;;;-3.70;99.90;;;;;;5113400;28;20080;-80
2023/12/03 04:33:49;;;;;;;;;;;-3.70;99.90;;;;;;5113690;28;20103;-80
2023/12/03 04:36:15;;;;;;;;;;;-3.70;99.90;;;;;;5099995;28;20258;-80
2023/12/03 04:38:41;;;;;;;44.95;21.45;;;-3.70;99.90;;;;;;5095870;28;19973;-79
2023/12/03 04:41:07;;;;;;;38.80;20.02;;;-3.70;99.90;;;;;;5081082;28;20020;-80
2023/12/03 04:43:33;;;;;;;44.33;23.23;;;-3.80;99.90;;;;;;5113186;28;20027;-80
2023/12/03 04:46:06;;;;;;;39.75;22.23;;;-3.90;99.90;;;;;;5113537;28;20358;-81
2023/12/03 04:48:33;;;;;;;42.45;25.08;;;-3.90;99.90;;;;;;5115199;28;20100;-81
2023/12/03 04:50:59;;;;;;;45.03;22.88;;;-4.00;99.90;;;;;;5117947;28;20073;-80
2023/12/03 04:53:25;;;;;;;37.10;22.23;;;-4.00;99.90;;;;;;5118622;28;20027;-81
2023/12/03 04:55:51;;;;;;;37.85;23.75;;;-4.00;99.90;;;;;;5113753;28;20102;-80
2023/12/03 04:58:16;;;;;;;43.70;21.75;;;-3.90;99.90;;;;;;5112554;28;20480;-80
2023/12/03 05:00:42;;;;;;;37.00;22.73;;;-3.90;99.90;;;;;;5112749;28;20030;-79
2023/12/03 05:03:08;;;;;;;44.33;23.30;;;-3.90;99.90;;;;;;5112663;28;20592;-80
2023/12/03 05:05:34;;;;;;;39.33;23.35;;;-3.90;99.90;;;;;;5094364;28;20054;-80
2023/12/03 05:08:00;;;;;;;38.20;21.38;;;-3.90;99.90;;;;;;5108191;28;20038;-80
2023/12/03 05:10:26;;;;;;;39.65;21.60;;;-3.90;99.90;;;;;;5109957;28;20047;-80
2023/12/03 05:12:52;;;;;;;37.63;19.90;;;-3.80;99.90;;;;;;5107211;28;20011;-82
2023/12/03 05:15:18;;;;;;;37.33;20.13;;;-3.80;99.90;;;;;;5096929;28;20028;-80
2023/12/03 05:17:43;;;;;;;36.80;20.77;;;-3.90;99.90;;;;;;5105384;28;20398;-80
2023/12/03 05:20:10;;;;;;;39.53;23.85;;;-4.00;99.90;;;;;;5111988;28;20024;-82
2023/12/03 05:22:36;;;;;;;38.13;19.48;;;-4.10;99.90;;;;;;5112715;28;20035;-81
2023/12/03 05:25:02;;;;;;;37.10;22.05;;;-4.00;99.90;;;;;;5097315;28;20491;-80
2023/12/03 05:27:27;;;;;;;43.85;20.63;;;-4.00;99.90;;;;;;5115055;28;20204;-79
2023/12/03 05:29:53;;;;;;;35.92;20.20;;;-3.90;99.90;;;;;;5114175;28;20012;-79
2023/12/03 05:32:19;;;;;;;37.28;19.58;;;-3.90;99.90;;;;;;5114083;28;20023;-80
2023/12/03 05:34:45;;;;;;;31.92;19.42;;;-3.90;99.90;;;;;;5107576;28;20418;-80
2023/12/03 05:37:12;;;;;;;35.40;19.92;;;-3.90;99.90;;;;;;5090568;28;20081;-80
2023/12/03 05:39:39;;;;;;;33.13;21.20;;;-3.90;99.90;;;;;;5112580;28;20026;-80
2023/12/03 05:42:05;;;;;;;26.23;17.35;;;-3.90;99.90;;;;;;5096437;28;20392;-80
2023/12/03 05:44:30;;;;;;;35.90;20.02;;;-3.90;99.90;;;;;;5092191;28;20122;-81
2023/12/03 05:46:56;;;;;;;34.13;19.88;;;-3.80;99.90;;;;;;5100399;28;20023;-79
2023/12/03 05:49:22;;;;;;;35.83;21.13;;;-3.90;99.90;;;;;;5106576;28;20073;-78
2023/12/03 05:51:48;;;;;;;38.55;20.67;;;-3.80;99.90;;;;;;5095934;28;20028;-79
2023/12/03 05:54:14;;;;;;;43.15;22.90;;;-3.80;99.90;;;;;;5097518;28;20111;-80
2023/12/03 05:56:40;;;;;;;30.00;18.83;;;-3.70;99.90;;;;;;5115627;28;20102;-78
2023/12/03 05:59:06;;;;;;;36.60;22.42;;;-3.70;99.90;;;;;;5115991;28;20019;-79
2023/12/03 06:01:32;;;;;;;34.53;21.20;;;-3.60;99.90;;;;;;5115411;28;20035;-80
2023/12/03 06:03:59;;;;;;;33.30;21.20;;;-3.60;99.90;;;;;;5115852;28;20027;-80
2023/12/03 06:06:25;;;;;;;38.60;22.23;;;-3.60;99.90;;;;;;5095501;28;20080;-80
2023/12/03 06:08:51;;;;;;;37.28;19.80;;;-3.60;99.90;;;;;;5083390;28;20016;-79
2023/12/03 06:11:16;;;;;;;39.92;21.85;;;-3.60;99.90;;;;;;5116506;28;20198;-80
2023/12/03 06:13:42;;;;;;;32.95;17.58;;;-3.60;99.90;;;;;;5112722;28;20020;-81
2023/12/03 06:16:09;;;;;;;37.08;20.77;;;-3.60;99.90;;;;;;5107689;28;20122;-80
2023/12/03 06:18:35;;;;;;;36.22;19.85;;;-3.60;99.90;;;;;;5131462;28;20019;-80
2023/12/03 06:21:02;;;;;;;32.65;20.48;;;-3.60;99.90;;;;;;5107263;27;20027;-81
2023/12/03 06:23:28;;;;;;;36.05;21.08;;;-3.60;99.90;;;;;;5119408;27;20106;-81
2023/12/03 06:25:54;;;;;;;32.80;20.17;;;-3.60;99.80;;;;;;5115133;28;20055;-80
2023/12/03 06:28:20;;;;;;;39.10;22.00;;;-3.60;99.70;;;;;;5112938;28;20019;-81
2023/12/03 06:30:47;;;;;;;36.72;21.63;;;-3.60;99.60;;;;;;5121269;28;20151;-80
2023/12/03 06:33:14;;;;;;;40.08;23.00;;;-3.60;99.40;;;;;;5107334;28;20028;-80
2023/12/03 06:35:40;;;;;;;38.08;22.52;;;-3.60;99.40;;;;;;5111101;28;20031;-80
2023/12/03 06:38:06;;;;;;;43.55;24.67;;;-3.60;99.40;;;;;;5115706;28;20046;-79
2023/12/03 06:40:32;;;;;;;40.13;23.38;;;-3.60;99.00;;;;;;5101678;28;20112;-81
2023/12/03 06:42:58;;;;;;;34.10;22.05;;;-3.60;98.90;;;;;;5111054;28;20023;-80
2023/12/03 06:45:24;;;;;;;37.42;22.40;;;-3.60;98.70;;;;;;5096562;28;20396;-78
2023/12/03 06:47:50;;;;;;;44.70;25.27;;;-3.60;98.70;;;;;;5096785;28;20392;-81
2023/12/03 06:50:16;;;;;;;37.90;24.65;;;-3.70;98.60;;;;;;5114772;28;20024;-81
2023/12/03 06:52:42;;;;;;;46.13;23.85;;;-3.80;98.40;;;;;;5115262;28;20026;-80
2023/12/03 06:55:08;;;;;;;49.50;28.67;;;-3.90;98.30;;;;;;5115084;28;20023;-82
2023/12/03 06:57:33;;;;;;;43.15;24.95;;;-4.10;98.30;;;;;;5097200;28;20047;-80
2023/12/03 06:59:59;;;;;;;42.97;24.58;;;-4.10;98.40;;;;;;5112916;28;20397;-81
2023/12/03 07:02:25;;;;;;;45.45;24.60;;;-4.20;98.20;;;;;;5096543;28;20039;-82
2023/12/03 07:04:51;;;;;;;49.40;27.42;;;-4.30;98.30;;;;;;5115147;28;20020;-81
2023/12/03 07:07:17;;;;;;;48.88;25.27;;;-4.30;98.40;;;;;;5098261;28;20047;-81
2023/12/03 07:09:43;;;;;;;46.60;26.88;;;-4.20;98.60;;;;;;5106145;28;20051;-82
2023/12/03 07:12:09;;;;;;;43.05;26.15;;;-4.10;98.50;;;;;;5100957;28;20026;-80
2023/12/03 07:14:35;;;;;;;48.60;25.45;;;-4.10;98.30;;;;;;5114769;28;20027;-80
2023/12/03 07:17:01;;;;;;;44.33;25.95;;;-4.10;98.40;;;;;;5114724;28;20357;-80
2023/12/03 07:19:27;;;;;;;56.10;28.92;;;-4.00;98.30;;;;;;5114758;28;20053;-82
2023/12/03 07:21:53;;;;;;;42.13;23.80;;;-4.00;98.30;;;;;;5115189;28;20112;-80
2023/12/03 07:24:18;;;;;;;45.63;27.17;;;-4.00;98.40;;;;;;5114972;28;20363;-80
2023/12/03 07:26:44;;;;;;;47.03;26.67;;;-4.00;98.30;;;;;;5114664;28;20028;-80
2023/12/03 07:29:10;;;;;;;52.13;29.77;;;-4.00;98.40;;;;;;5093649;28;20015;-81
2023/12/03 07:31:36;;;;;;;49.10;27.75;;;-4.00;98.40;;;;;;5115588;27;20032;-80
2023/12/03 07:34:02;;;;;;;47.03;27.50;;;-4.00;98.50;;;;;;5099168;28;20111;-80
2023/12/03 07:36:28;;;;;;;43.90;26.55;;;-4.00;98.50;;;;;;5114116;28;20030;-81
2023/12/03 07:38:54;;;;;;;57.17;32.35;;;-4.00;98.70;;;;;;5098103;28;20083;-80
2023/12/03 07:41:20;;;;;;;54.50;28.77;;;-4.00;98.80;;;;;;5109073;28;20032;-80
2023/12/03 07:43:46;;;;;;;49.33;27.13;;;-4.00;98.80;;;;;;5087220;28;20384;-83
2023/12/03 07:46:18;;;;;;;46.83;29.92;;;-4.00;98.90;;;;;;5115955;27;20083;-81
2023/12/03 07:48:45;;;;;;;52.15;28.33;;;-4.00;98.90;;;;;;5106683;28;20107;-81
2023/12/03 07:51:12;;;;;;;55.22;25.58;;;-3.90;99.00;;;;;;5089462;28;20030;-81
2023/12/03 07:53:39;;;;;;;45.38;25.20;;;-3.90;99.10;;;;;;5112951;28;20039;-82
2023/12/03 07:56:06;;;;;;;56.70;28.70;;;-3.90;99.00;;;;;;5094622;28;20027;-82
2023/12/03 07:58:33;;;;;;;50.33;27.23;;;-3.90;99.10;;;;;;5084313;28;20045;-81
2023/12/03 08:01:00;;;;;;;61.33;29.42;;;-4.00;99.30;;;;;;5107191;28;20035;-83
2023/12/03 08:03:26;;;;;;;45.25;29.33;;;-4.00;99.40;;;;;;5109913;28;20119;-82
2023/12/03 08:05:52;;;;;;;51.88;30.05;;;-4.00;99.30;;;;;;5113846;28;20533;-82
2023/12/03 08:08:18;;;;;;;49.03;28.58;;;-4.00;99.30;;;;;;5113704;28;20028;-82
2023/12/03 08:10:43;;;;;;;53.42;29.17;;;-4.00;99.40;;;;;;5095320;28;20111;-80
2023/12/03 08:13:09;;;;;;;43.40;27.20;;;-3.90;99.70;;;;;;5113971;28;20088;-84
2023/12/03 08:15:35;;;;;;;53.75;28.77;;;-3.90;99.80;;;;;;5100082;28;20481;-80
2023/12/03 08:18:03;;;;;;;49.63;28.10;;;-3.90;99.80;;;;;;5113902;28;20384;-83
2023/12/03 08:20:28;;;;;;;57.42;39.08;;;-3.90;99.90;;;;;;5108661;28;20439;-83
2023/12/03 08:22:54;;;;;;;65.18;32.97;;;-4.00;99.60;;;;;;5095336;28;20032;-81
2023/12/03 08:25:20;;;;;;;59.72;33.30;;;-4.20;99.60;;;;;;5094178;28;20020;-82
2023/12/03 08:27:46;;;;;;;53.53;31.92;;;-4.30;99.90;;;;;;5108470;28;20473;-82
2023/12/03 08:30:12;;;;;;;44.38;24.33;;;-4.40;99.90;;;;;;5115045;28;20019;-81
2023/12/03 08:32:38;;;;;;;52.53;29.92;;;-4.40;99.90;;;;;;5113892;28;20015;-81
2023/12/03 08:35:04;;;;;;;50.38;28.45;;;-4.40;99.90;;;;;;5113723;28;20034;-82
2023/12/03 08:37:30;;;;;;;48.50;27.25;;;-4.50;99.90;;;;;;5115114;27;20070;-82
2023/12/03 08:39:56;;;;;;;54.38;28.70;;;-4.50;99.90;;;;;;5113248;28;20389;-83
2023/12/03 08:42:22;;;;;;;52.22;28.52;;;-4.50;99.90;;;;;;5113493;28;20477;-84
2023/12/03 08:44:48;;;;;;;51.78;30.13;;;-4.40;99.90;;;;;;5112870;28;20757;-82
2023/12/03 08:47:14;;;;;;;50.28;27.30;;;-4.40;99.90;;;;;;5107797;28;20024;-81
2023/12/03 08:49:40;;;;;;;42.00;24.08;;;-4.40;99.90;;;;;;5097044;28;20409;-84
2023/12/03 08:52:08;;;;;;;49.03;24.60;;;-4.30;99.90;;;;;;5105010;28;20028;-80
2023/12/03 08:54:34;;;;;;;46.70;25.05;;;-4.30;99.90;;;;;;5105870;28;20420;-81
2023/12/03 08:57:00;;;;;;;55.58;33.40;;;-4.30;99.90;;;;;;5093644;28;20053;-81
2023/12/03 08:59:26;;;;;;;46.90;26.67;;;-4.20;99.90;;;;;;5111186;28;20012;-83
2023/12/03 09:01:52;;;;;;;41.53;26.02;;;-4.20;99.90;;;;;;5091748;28;20099;-83
2023/12/03 09:04:18;;;;;;;52.25;32.70;;;-4.20;99.90;;;;;;5111921;28;20462;-84
2023/12/03 09:06:46;;;;;;;48.15;29.48;;;-4.20;99.90;;;;;;5087800;28;20023;-83
2023/12/03 09:09:12;;;;;;;53.63;26.65;;;-4.20;99.90;;;;;;5108796;28;20024;-82
2023/12/03 09:11:45;;;;;;;42.75;22.48;;;-4.20;99.90;;;;;;5112164;28;20019;-83
2023/12/03 09:14:11;;;;;;;46.60;29.38;;;-4.20;99.90;;;;;;5112023;28;20102;-82
2023/12/03 09:16:37;;;;;;;45.67;28.23;;;-4.30;99.90;;;;;;5125960;28;20031;-81
2023/12/03 09:19:03;;;;;;;43.40;25.05;;;-4.30;99.90;;;;;;5104738;28;20049;-82
2023/12/03 09:21:29;;;;;;;49.30;31.65;;;-4.30;99.90;;;;;;5115187;28;20557;-82
2023/12/03 09:23:56;;;;;;;43.58;27.65;;;-4.40;99.90;;;;;;5114422;28;20024;-84
2023/12/03 09:26:22;;;;;;;46.63;28.02;;;-4.40;99.90;;;;;;5117054;28;20022;-82
2023/12/03 09:28:48;;;;;;;48.58;25.45;;;-4.50;99.90;;;;;;5128985;28;20102;-82
2023/12/03 09:31:14;;;;;;;36.17;21.20;;;-4.50;99.90;;;;;;5119473;28;20051;-82
2023/12/03 09:33:40;;;;;;;51.40;28.95;;;-4.50;99.90;;;;;;5087758;28;20027;-81
2023/12/03 09:36:07;;;;;;;39.42;23.45;;;-4.40;99.90;;;;;;5098955;28;20022;-83
2023/12/03 09:38:34;;;;;;;42.00;23.67;;;-4.40;99.90;;;;;;5084241;28;20024;-85
2023/12/03 09:41:04;;;;;;;45.03;25.85;;;-4.40;99.90;;;;;;5115193;28;20027;-83
2023/12/03 09:43:32;;;;;;;41.42;24.50;;;-4.30;99.90;;;;;;5117419;28;20026;-83
2023/12/03 09:45:59;;;;;;;43.55;24.80;;;-4.30;99.90;;;;;;5123139;28;20024;-83
2023/12/03 09:48:30;;;;;;;41.47;23.92;;;-4.20;99.90;;;;;;5103617;28;20024;-84
2023/12/03 09:50:58;;;;;;;40.80;21.55;;;-4.10;99.90;;;;;;5103045;28;20024;-84
2023/12/03 09:53:26;;;;;;;29.70;16.98;;;-4.10;99.90;;;;;;5109605;28;20054;-82
2023/12/03 09:55:53;;;;;;;21.42;13.75;;;-4.00;99.90;;;;;;5115091;28;20020;-82
2023/12/03 09:58:19;;;;;;;39.05;24.77;;;-4.00;99.90;;;;;;5106070;28;20016;-80
2023/12/03 10:00:46;;;;;;;39.55;26.33;;;-4.00;99.90;;;;;;5110555;28;20503;-86
2023/12/03 10:03:12;;;;;;;37.45;20.80;;;-4.00;99.90;;;;;;5114256;28;20024;-85
2023/12/03 10:05:38;;;;;;;35.10;20.63;;;-4.00;99.90;;;;;;5103900;28;20018;-83
2023/12/03 10:08:06;;;;;;;40.72;22.15;;;-4.00;99.90;;;;;;5097537;28;20028;-87
2023/12/03 10:10:36;;;;;;;36.28;21.83;;;-4.00;99.90;;;;;;5096470;28;20481;-82
2023/12/03 10:13:04;;;;;;;34.72;22.33;;;-4.00;99.90;;;;;;5108206;28;20022;-82
2023/12/03 10:15:30;;;;;;;40.50;23.75;;;-4.00;99.90;;;;;;5107593;28;20024;-83
2023/12/03 10:17:56;;;;;;;35.88;22.70;;;-3.90;99.90;;;;;;5116077;28;20038;-84
2023/12/03 10:20:26;;;;;;;37.38;21.85;;;-3.90;99.90;;;;;;5100163;28;20023;-84
2023/12/03 10:23:00;;;;;;;33.15;22.60;;;-3.90;99.90;;;;;;5120765;27;20052;-84
2023/12/03 10:25:34;;;;;;;36.38;22.40;;;-3.80;99.90;;;;;;5093797;28;20542;-81
2023/12/03 10:28:05;;;;;;;39.72;22.73;;;-3.80;99.90;;;;;;5115583;28;20051;-82
2023/12/03 10:30:31;;;;;;;32.30;20.50;;;-3.80;99.90;;;;;;5115144;28;20020;-84
2023/12/03 10:32:57;;;;;;;36.60;23.03;;;-3.70;99.90;;;;;;5113317;28;20335;-82
2023/12/03 10:35:24;;;;;;;34.42;20.60;;;-3.60;99.90;;;;;;5107886;28;20401;-82
2023/12/03 10:37:51;;;;;;;31.02;16.48;;;-3.60;99.90;;;;;;5115025;28;20012;-82
2023/12/03 10:40:18;;;;;;;33.42;22.50;;;-3.60;99.90;;;;;;5119020;27;20023;-82
2023/12/03 10:42:45;;;;;;;33.60;19.00;;;-3.60;99.90;;;;;;5111765;27;20495;-81
2023/12/03 10:45:13;;;;;;;25.08;16.67;;;-3.60;99.90;;;;;;5114185;28;20130;-80
2023/12/03 10:47:42;;;;;;;27.27;17.98;;;-3.60;99.90;;;;;;5096952;28;20031;-82
2023/12/03 10:50:12;;;;;;;29.73;18.70;;;-3.60;99.90;;;;;;5114935;28;20020;-82
2023/12/03 10:52:39;;;;;;;39.38;27.55;;;-3.60;99.90;;;;;;5114982;28;20019;-82
2023/12/03 10:55:06;;;;;;;;;;;-3.60;99.90;;;;;;5097361;28;20495;-81
2023/12/03 10:57:34;;;;;;;;;;;-3.50;99.90;;;;;;5113812;28;19903;-82
2023/12/03 11:00:09;;;;;;;33.83;18.20;;;-3.50;99.90;;;;;;5111662;28;19903;-82
2023/12/03 11:03:04;;;;;;;32.03;16.73;;;-3.60;99.90;;;;;;5087223;28;20031;-83
2023/12/03 11:05:36;;;;;;;30.27;16.60;;;-3.60;99.90;;;;;;5116427;28;20020;-84
2023/12/03 11:08:02;;;;;;;30.98;16.75;;;-3.70;99.90;;;;;;5118669;28;20034;-81
2023/12/03 11:10:29;;;;;;;45.40;21.00;;;-3.60;99.90;;;;;;5114530;28;20050;-79
2023/12/03 11:12:56;;;;;;;32.15;18.20;;;-3.60;99.90;;;;;;5114483;28;20441;-81
2023/12/03 11:15:22;;;;;;;;;;;-3.70;99.90;;;;;;5114970;28;20367;-81
2023/12/03 11:17:51;;;;;;;30.83;16.00;;;-3.70;99.90;;;;;;5104763;28;19914;-80
2023/12/03 11:20:37;;;;;;;27.63;15.23;;;-3.80;99.90;;;;;;5114644;28;20034;-81
2023/12/03 11:23:31;;;;;;;30.30;18.23;;;-3.80;99.90;;;;;;5116388;27;20040;-81
2023/12/03 11:26:13;;;;;;;21.55;11.73;;;-3.80;99.90;;;;;;5122119;27;20034;-82
2023/12/03 11:28:52;;;;;;;31.77;15.50;;;-3.80;99.90;;;;;;5111518;28;20027;-82
2023/12/03 11:31:18;;;;;;;27.35;14.93;;;-3.80;99.90;;;;;;5104083;28;20046;-83
2023/12/03 11:33:59;;;;;;;32.25;17.45;;;-3.90;99.90;;;;;;5107431;28;20107;-83
2023/12/03 11:36:47;;;;;;;29.95;16.13;;;-3.80;99.90;;;;;;5080280;28;20029;-82
2023/12/03 11:39:15;;;;;;;27.52;17.40;;;-3.90;99.90;;;;;;5111756;28;20065;-81
2023/12/03 11:41:44;;;;;;;13.18;9.27;;;-3.90;99.90;;;;;;5107114;27;20023;-83
2023/12/03 11:44:21;;;;;;;31.08;16.08;;;-4.00;99.90;;;;;;5105296;28;20128;-82
2023/12/03 11:47:00;;;;;;;34.53;16.53;;;-4.00;99.90;;;;;;5114785;28;20467;-82
2023/12/03 11:49:28;;;;;;;63.70;20.85;;;-4.00;99.90;;;;;;5114947;28;20767;-80
2023/12/03 11:51:54;;;;;;;30.25;15.85;;;-4.00;99.90;;;;;;5115657;27;20028;-84
2023/12/03 11:54:41;;;;;;;33.35;17.13;;;-4.10;99.90;;;;;;5105227;27;20019;-83
2023/12/03 11:57:15;;;;;;;31.17;14.80;;;-4.10;99.90;;;;;;5097138;28;20438;-83
2023/12/03 11:59:43;;;;;;;33.58;18.60;;;-4.20;99.90;;;;;;5114447;28;20489;-82
2023/12/03 12:02:09;;;;;;;25.98;14.02;;;-4.10;99.90;;;;;;5095956;28;20103;-83
2023/12/03 12:04:35;;;;;;;30.70;16.50;;;-4.10;99.90;;;;;;5113859;28;20063;-83
2023/12/03 12:07:18;;;;;;;29.35;15.27;;;-4.10;99.90;;;;;;5096810;28;20020;-84
2023/12/03 12:09:48;;;;;;;20.85;12.95;;;-4.10;99.90;;;;;;5112182;28;20027;-83
2023/12/03 12:12:17;;;;;;;22.90;14.68;;;-4.10;99.90;;;;;;5105445;27;20024;-81
2023/12/03 12:14:45;;;;;;;20.27;12.65;;;-4.10;99.90;;;;;;5098696;28;20031;-83
2023/12/03 12:17:10;;;;;;;25.05;12.45;;;-4.10;99.90;;;;;;5107059;28;20388;-82
2023/12/03 12:19:45;;;;;;;23.80;15.77;;;-4.10;99.90;;;;;;5128082;28;20031;-82
2023/12/03 12:22:11;;;;;;;21.17;14.48;;;-4.10;99.90;;;;;;5126691;28;20088;-82
2023/12/03 12:24:39;;;;;;;17.77;11.35;;;-4.10;99.90;;;;;;5120111;28;20051;-82
2023/12/03 12:27:05;;;;;;;23.25;12.35;;;-4.10;99.90;;;;;;5108570;28;20084;-82
2023/12/03 12:29:32;;;;;;;25.95;13.80;;;-4.10;99.90;;;;;;5110320;28;20051;-83